createdAt,value
2018-11-12T05:02:17.394Z,0.40
2018-11-12T05:04:45.473Z,0.50
2018-11-12T05:07:13.534Z,0.40
2018-11-12T05:09:41.574Z,0.50
2018-11-12T05:12:09.759Z,0.60
2018-11-12T05:14:37.851Z,1.63
2018-11-12T05:17:05.986Z,0.83
2018-11-12T05:19:34.089Z,1.90
2018-11-12T05:22:02.127Z,0.63
2018-11-12T05:24:30.246Z,2.53
2018-11-12T05:26:58.373Z,0.80
2018-11-12T05:29:26.429Z,1.10
2018-11-12T05:31:54.486Z,1.00
2018-11-12T05:34:22.565Z,0.47
2018-11-12T05:36:50.596Z,0.87
2018-11-12T05:39:18.713Z,1.37
2018-11-12T05:41:46.854Z,0.97
2018-11-12T05:44:14.960Z,0.40
2018-11-12T05:46:43.081Z,0.40
2018-11-12T05:49:11.132Z,0.43
2018-11-12T05:51:39.283Z,0.40
2018-11-12T05:54:07.306Z,1.47
2018-11-12T05:56:35.379Z,0.50
2018-11-12T05:59:03.519Z,1.90
2018-11-12T06:01:31.499Z,0.50
2018-11-12T06:03:59.577Z,3.03
2018-11-12T06:06:27.668Z,0.40
2018-11-12T06:08:55.702Z,1.23
2018-11-12T06:11:23.809Z,0.70
2018-11-12T06:13:51.941Z,2.30
2018-11-12T06:16:20.100Z,1.70
2018-11-12T06:18:48.178Z,0.73
2018-11-12T06:21:16.344Z,0.60
2018-11-12T06:23:44.418Z,0.70
2018-11-12T06:26:12.521Z,4.93
2018-11-12T06:28:40.605Z,1.03
2018-11-12T06:31:08.741Z,0.60
2018-11-12T06:33:36.746Z,1.33
2018-11-12T06:36:05.134Z,0.70
2018-11-12T06:38:33.197Z,1.13
2018-11-12T06:41:01.267Z,0.93
2018-11-12T06:43:29.346Z,0.90
2018-11-12T06:45:57.430Z,2.20
2018-11-12T06:48:25.516Z,2.87
2018-11-12T06:50:53.678Z,1.60
2018-11-12T06:53:21.884Z,1.87
2018-11-12T06:55:49.935Z,2.17
2018-11-12T06:58:17.994Z,4.67
2018-11-12T07:00:46.108Z,2.10
2018-11-12T07:03:14.190Z,2.53
2018-11-12T07:05:42.246Z,3.67
2018-11-12T07:08:10.306Z,4.63
2018-11-12T07:10:38.378Z,4.90
2018-11-12T07:13:09.852Z,8.40
2018-11-12T07:15:37.873Z,7.07
2018-11-12T07:18:06.126Z,10.07
2018-11-12T07:20:34.193Z,8.60
2018-11-12T07:23:02.309Z,9.57
2018-11-12T07:25:31.073Z,12.23
2018-11-12T07:27:59.433Z,8.37
2018-11-12T07:30:28.320Z,9.73
2018-11-12T07:32:57.400Z,9.20
2018-11-12T07:35:25.959Z,8.63
2018-11-12T07:37:54.920Z,9.00
2018-11-12T07:40:23.346Z,11.27
2018-11-12T07:42:51.390Z,10.73
2018-11-12T07:45:21.593Z,9.03
2018-11-12T07:47:50.558Z,12.80
2018-11-12T07:50:19.995Z,6.97
2018-11-12T07:52:48.064Z,8.93
2018-11-12T07:55:17.957Z,8.73
2018-11-12T07:57:47.075Z,13.37
2018-11-12T08:00:18.563Z,7.20
2018-11-12T08:02:47.501Z,11.40
2018-11-12T08:05:15.877Z,6.17
2018-11-12T08:07:44.554Z,5.60
2018-11-12T08:10:17.888Z,8.13
2018-11-12T08:12:46.371Z,6.47
2018-11-12T08:15:15.875Z,7.07
2018-11-12T08:17:44.090Z,7.10
2018-11-12T08:20:13.959Z,4.60
2018-11-12T08:22:42.626Z,7.07
2018-11-12T08:25:11.638Z,6.57
2018-11-12T08:27:40.222Z,5.03
2018-11-12T08:30:12.779Z,5.07
2018-11-12T08:32:40.878Z,4.33
2018-11-12T08:35:08.954Z,5.60
2018-11-12T08:37:37.034Z,4.10
2018-11-12T08:40:07.471Z,9.03
2018-11-12T08:42:35.629Z,3.00
2018-11-12T08:45:04.592Z,5.60
2018-11-12T08:47:32.661Z,3.10
2018-11-12T08:50:00.849Z,2.73
2018-11-12T08:52:28.835Z,2.20
2018-11-12T08:54:57.069Z,2.13
2018-11-12T08:57:25.261Z,3.90
2018-11-12T08:59:53.373Z,2.30
2018-11-12T09:02:21.527Z,2.27
2018-11-12T09:04:49.625Z,6.33
2018-11-12T09:07:18.186Z,2.60
2018-11-12T09:09:45.791Z,2.00
2018-11-12T09:12:13.855Z,2.83
2018-11-12T09:14:41.968Z,1.70
2018-11-12T09:17:10.030Z,2.10
2018-11-12T09:19:38.110Z,2.30
2018-11-12T09:22:06.186Z,3.70
2018-11-12T09:24:34.242Z,2.57
2018-11-12T09:27:02.314Z,2.57
2018-11-12T09:29:30.415Z,2.30
2018-11-12T09:31:59.294Z,3.17
2018-11-12T09:34:27.368Z,3.13
2018-11-12T09:36:55.547Z,2.73
2018-11-12T09:39:23.588Z,4.23
2018-11-12T09:41:51.622Z,1.90
2018-11-12T09:44:19.762Z,1.70
2018-11-12T09:46:47.794Z,1.77
2018-11-12T09:51:43.944Z,2.73
2018-11-12T09:54:12.126Z,1.93
2018-11-12T09:56:40.109Z,1.73
2018-11-12T09:59:08.219Z,1.43
2018-11-12T10:01:36.869Z,1.43
2018-11-12T10:04:05.295Z,2.13
2018-11-12T10:06:35.893Z,1.80
2018-11-12T10:09:05.475Z,1.73
2018-11-12T10:11:34.609Z,5.80
2018-11-12T10:14:01.824Z,3.20
2018-11-12T10:16:30.083Z,2.43
2018-11-12T10:18:55.986Z,1.63
2018-11-12T10:21:24.051Z,2.83
2018-11-12T10:23:52.177Z,2.37
2018-11-12T10:26:20.310Z,1.90
2018-11-12T10:28:48.386Z,1.97
2018-11-12T10:31:16.479Z,2.00
2018-11-12T10:33:44.575Z,2.53
2018-11-12T10:36:12.722Z,1.50
2018-11-12T10:38:40.802Z,1.33
2018-11-12T10:41:08.888Z,2.00
2018-11-12T10:43:36.948Z,2.03
2018-11-12T10:46:05.456Z,1.13
2018-11-12T10:48:33.611Z,1.30
2018-11-12T10:51:05.168Z,3.60
2018-11-12T10:53:29.684Z,1.20
2018-11-12T10:55:57.998Z,1.93
2018-11-12T10:58:25.945Z,2.40
2018-11-12T11:00:59.503Z,1.73
2018-11-12T11:03:33.095Z,1.27
2018-11-12T11:06:01.219Z,0.80
2018-11-12T11:08:29.530Z,2.33
2018-11-12T11:10:57.585Z,1.37
2018-11-12T11:13:25.682Z,0.83
2018-11-12T11:15:53.838Z,1.47
2018-11-12T11:18:21.911Z,1.53
2018-11-12T11:20:49.979Z,1.20
2018-11-12T11:23:18.073Z,3.80
2018-11-12T11:25:46.150Z,1.20
2018-11-12T11:28:14.188Z,2.30
2018-11-12T11:30:42.254Z,1.50
2018-11-12T11:33:10.371Z,2.83
2018-11-12T11:35:38.470Z,1.40
2018-11-12T11:38:06.559Z,1.03
2018-11-12T11:40:34.678Z,2.67
2018-11-12T11:43:02.706Z,0.90
2018-11-12T11:45:30.806Z,1.33
2018-11-12T11:47:58.954Z,0.90
2018-11-12T11:50:27.592Z,0.90
2018-11-12T11:52:55.639Z,1.17
2018-11-12T11:55:24.494Z,2.87
2018-11-12T11:57:52.982Z,1.10
2018-11-12T12:00:24.636Z,1.20
2018-11-12T12:02:53.668Z,4.80
2018-11-12T12:05:22.503Z,2.37
2018-11-12T12:07:51.190Z,1.30
2018-11-12T12:10:19.270Z,1.37
2018-11-12T12:12:48.374Z,1.00
2018-11-12T12:15:17.775Z,3.13
2018-11-12T12:17:45.974Z,2.10
2018-11-12T12:20:17.598Z,2.90
2018-11-12T12:22:45.738Z,1.40
2018-11-12T12:25:15.026Z,1.33
2018-11-12T12:27:43.470Z,1.10
2018-11-12T12:30:15.737Z,1.40
2018-11-12T12:32:44.959Z,1.20
2018-11-12T12:35:13.510Z,3.40
2018-11-12T12:37:42.386Z,1.63
2018-11-12T12:40:12.968Z,5.13
2018-11-12T12:42:41.069Z,3.23
2018-11-12T12:45:11.691Z,2.00
2018-11-12T12:47:39.746Z,4.70
2018-11-12T12:50:09.191Z,1.40
2018-11-12T12:52:37.330Z,2.77
2018-11-12T12:55:06.289Z,1.70
2018-11-12T12:57:34.809Z,5.17
2018-11-12T13:00:03.551Z,1.43
2018-11-12T13:02:31.458Z,1.13
2018-11-12T13:04:59.658Z,1.67
2018-11-12T13:07:27.623Z,1.73
2018-11-12T13:09:55.674Z,0.90
2018-11-12T13:12:23.762Z,6.60
2018-11-12T13:14:52.244Z,12.90
2018-11-12T13:17:20.381Z,4.00
2018-11-12T13:19:48.556Z,5.77
2018-11-12T13:22:16.554Z,1.20
2018-11-12T13:24:44.620Z,1.13
2018-11-12T13:27:12.710Z,0.90
2018-11-12T13:29:40.782Z,1.03
2018-11-12T13:32:08.875Z,0.90
2018-11-12T13:34:36.949Z,1.23
2018-11-12T13:37:05.086Z,2.10
2018-11-12T13:39:33.274Z,4.93
2018-11-12T13:42:01.283Z,2.63
2018-11-12T13:44:29.443Z,1.97
2018-11-12T13:46:58.697Z,1.47
2018-11-12T13:49:26.753Z,2.30
2018-11-12T13:51:54.867Z,1.60
2018-11-12T13:54:22.936Z,1.07
2018-11-12T13:56:51.010Z,1.83
2018-11-12T13:59:19.066Z,0.60
2018-11-12T14:01:47.144Z,3.03
2018-11-12T14:04:15.249Z,1.53
2018-11-12T14:06:43.330Z,3.43
2018-11-12T14:09:11.889Z,1.30
2018-11-12T14:11:40.126Z,5.83
2018-11-12T14:14:08.372Z,1.27
2018-11-12T14:16:36.491Z,1.60
2018-11-12T14:19:04.882Z,1.70
2018-11-12T14:21:33.366Z,4.73
2018-11-12T14:24:01.355Z,0.87
2018-11-12T14:26:29.410Z,5.83
2018-11-12T14:28:57.692Z,1.37
2018-11-12T14:31:25.812Z,1.20
2018-11-12T14:33:53.914Z,2.20
2018-11-12T14:36:22.002Z,1.30
2018-11-12T14:38:50.556Z,1.17
2018-11-12T14:41:18.632Z,1.00
2018-11-12T14:43:46.766Z,1.57
2018-11-12T14:46:14.838Z,2.40
2018-11-12T14:48:43.359Z,5.27
2018-11-12T14:51:11.527Z,1.13
2018-11-12T14:53:39.498Z,2.40
2018-11-12T14:56:07.598Z,1.17
2018-11-12T14:58:35.704Z,4.50
2018-11-12T15:01:03.827Z,1.40
2018-11-12T15:03:31.902Z,2.10
2018-11-12T15:05:59.979Z,1.20
2018-11-12T15:08:28.114Z,2.13
2018-11-12T15:10:56.192Z,1.33
2018-11-12T15:13:24.304Z,1.60
2018-11-12T15:15:52.416Z,1.73
2018-11-12T15:18:20.491Z,1.20
2018-11-12T15:20:48.631Z,1.13
2018-11-12T15:23:16.748Z,1.13
2018-11-12T15:25:44.860Z,3.80
2018-11-12T15:28:12.926Z,3.13
2018-11-12T15:30:41.049Z,1.40
2018-11-12T15:33:09.209Z,2.30
2018-11-12T15:35:37.327Z,1.40
2018-11-12T15:38:05.714Z,6.00
2018-11-12T15:40:33.819Z,1.30
2018-11-12T15:43:01.914Z,1.70
2018-11-12T15:45:30.027Z,1.83
2018-11-12T15:47:58.146Z,1.77
2018-11-12T15:50:35.066Z,1.73
2018-11-12T15:53:03.189Z,1.90
2018-11-12T15:55:31.288Z,1.20
2018-11-12T15:57:59.421Z,4.53
2018-11-12T16:00:27.459Z,3.27
2018-11-12T16:02:55.542Z,1.23
2018-11-12T16:05:23.629Z,1.33
2018-11-12T16:07:51.742Z,3.80
2018-11-12T16:10:20.830Z,2.93
2018-11-12T16:12:49.054Z,4.20
2018-11-12T16:15:18.573Z,1.40
2018-11-12T16:17:46.666Z,1.33
2018-11-12T16:20:20.141Z,3.90
2018-11-12T16:22:48.881Z,3.80
2018-11-12T16:25:17.602Z,2.90
2018-11-12T16:27:45.675Z,3.60
2018-11-12T16:30:14.091Z,4.83
2018-11-12T16:32:44.814Z,5.87
2018-11-12T16:35:14.521Z,6.90
2018-11-12T16:37:43.719Z,8.23
2018-11-12T16:40:11.862Z,7.00
2018-11-12T16:42:41.185Z,9.43
2018-11-12T16:45:09.329Z,14.27
2018-11-12T16:47:37.458Z,8.37
2018-11-12T16:50:06.993Z,12.37
2018-11-12T16:52:35.150Z,12.30
2018-11-12T16:55:03.322Z,14.43
2018-11-12T16:57:31.438Z,16.87
2018-11-12T16:59:59.649Z,15.97
2018-11-12T17:02:27.736Z,15.80
2018-11-12T17:04:55.877Z,20.07
2018-11-12T17:07:24.017Z,23.10
2018-11-12T17:09:52.233Z,23.10
2018-11-12T17:12:20.442Z,23.37
2018-11-12T17:14:51.374Z,26.60
2018-11-12T17:17:19.529Z,24.67
2018-11-12T17:19:47.651Z,31.30
2018-11-12T17:22:15.732Z,30.20
2018-11-12T17:24:43.912Z,33.00
2018-11-12T17:27:11.934Z,34.37
2018-11-12T17:29:40.042Z,32.97
2018-11-12T17:32:08.114Z,36.63
2018-11-12T17:34:36.257Z,36.93
2018-11-12T17:37:04.625Z,44.10
2018-11-12T17:39:32.742Z,43.73
2018-11-12T17:42:00.831Z,49.20
2018-11-12T17:44:28.954Z,38.33
2018-11-12T17:46:57.038Z,46.23
2018-11-12T17:49:25.124Z,50.40
2018-11-12T17:51:53.231Z,44.50
2018-11-12T17:54:21.337Z,43.57
2018-11-12T17:56:49.389Z,46.70
2018-11-12T17:59:17.496Z,47.50
2018-11-12T18:01:45.594Z,46.97
2018-11-12T18:04:13.657Z,48.00
2018-11-12T18:06:41.750Z,46.17
2018-11-12T18:09:10.834Z,46.10
2018-11-12T18:11:38.886Z,44.13
2018-11-12T18:14:08.386Z,44.20
2018-11-12T18:16:37.070Z,47.60
2018-11-12T18:19:05.364Z,46.43
2018-11-12T18:21:33.466Z,42.60
2018-11-12T18:24:01.791Z,49.17
2018-11-12T18:26:29.886Z,52.90
2018-11-12T18:28:57.960Z,44.20
2018-11-12T18:31:26.223Z,44.77
2018-11-12T18:33:54.170Z,45.67
2018-11-12T18:36:22.285Z,48.00
2018-11-12T18:38:50.403Z,43.80
2018-11-12T18:41:18.482Z,48.13
2018-11-12T18:43:46.832Z,52.07
2018-11-12T18:46:16.826Z,52.07
2018-11-12T18:48:45.195Z,51.73
2018-11-12T18:51:13.304Z,59.20
2018-11-12T18:53:41.421Z,54.90
2018-11-12T18:56:09.538Z,48.67
2018-11-12T18:58:37.606Z,51.67
2018-11-12T19:01:06.055Z,43.00
2018-11-12T19:03:34.175Z,34.77
2018-11-12T19:06:02.311Z,37.50
2018-11-12T19:08:30.487Z,38.93
2018-11-12T19:10:58.727Z,41.27
2018-11-12T19:13:26.725Z,43.27
2018-11-12T19:15:54.829Z,48.57
2018-11-12T19:18:22.913Z,46.40
2018-11-12T19:20:50.986Z,49.33
2018-11-12T19:23:19.130Z,42.97
2018-11-12T19:25:47.218Z,48.80
2018-11-12T19:28:15.302Z,43.10
2018-11-12T19:30:43.394Z,47.27
2018-11-12T19:33:11.538Z,52.07
2018-11-12T19:35:39.626Z,49.70
2018-11-12T19:38:07.730Z,45.90
2018-11-12T19:40:35.893Z,50.37
2018-11-12T19:43:03.978Z,47.30
2018-11-12T19:45:32.078Z,47.80
2018-11-12T19:48:00.208Z,53.97
2018-11-12T19:50:29.313Z,51.07
2018-11-12T19:52:58.226Z,47.30
2018-11-12T19:55:26.319Z,49.53
2018-11-12T19:57:54.399Z,52.27
2018-11-12T20:00:24.626Z,50.60
2018-11-12T20:02:54.103Z,42.17
2018-11-12T20:05:22.271Z,43.17
2018-11-12T20:07:50.383Z,47.57
2018-11-12T20:10:19.851Z,44.63
2018-11-12T20:12:47.945Z,47.37
2018-11-12T20:15:17.289Z,41.10
2018-11-12T20:17:46.309Z,43.97
2018-11-12T20:20:18.266Z,43.30
2018-11-12T20:22:46.786Z,42.20
2018-11-12T20:25:15.882Z,43.77
2018-11-12T20:27:44.347Z,43.20
2018-11-12T20:30:17.093Z,45.60
2018-11-12T20:32:45.768Z,45.17
2018-11-12T20:35:13.952Z,43.17
2018-11-12T20:37:42.125Z,46.00
2018-11-12T20:40:11.249Z,46.30
2018-11-12T20:42:39.474Z,46.13
2018-11-12T20:45:09.715Z,45.90
2018-11-12T20:47:38.313Z,44.27
2018-11-12T20:50:07.030Z,48.17
2018-11-12T20:52:35.346Z,42.40
2018-11-12T20:55:03.447Z,49.57
2018-11-12T20:57:31.554Z,46.73
2018-11-12T20:59:59.655Z,52.07
2018-11-12T21:02:27.867Z,49.27
2018-11-12T21:04:55.937Z,52.90
2018-11-12T21:07:24.067Z,55.70
2018-11-12T21:09:52.212Z,54.27
2018-11-12T21:12:20.297Z,52.67
2018-11-12T21:14:48.402Z,52.60
2018-11-12T21:17:16.519Z,52.20
2018-11-12T21:19:44.626Z,46.93
2018-11-12T21:22:14.323Z,47.27
2018-11-12T21:24:42.483Z,48.23
2018-11-12T21:27:10.630Z,49.87
2018-11-12T21:29:38.758Z,47.60
2018-11-12T21:32:06.854Z,49.70
2018-11-12T21:34:35.062Z,52.97
2018-11-12T21:37:03.228Z,55.07
2018-11-12T21:39:31.270Z,52.90
2018-11-12T21:41:59.377Z,60.90
2018-11-12T21:44:27.460Z,56.10
2018-11-12T21:46:55.574Z,56.17
2018-11-12T21:49:23.700Z,53.57
2018-11-12T21:51:51.744Z,48.73
2018-11-12T21:54:19.837Z,53.43
2018-11-12T21:56:47.970Z,48.33
2018-11-12T21:59:16.156Z,46.47
